Terminal Aerodrome Forecast
Issued by NWS Wichita, KS

Home | Current Version | Previous Version | Text Only | Print | Product List | Glossary Off
Versions: 1 2 3 4 5 6 7 8 9 10 11 12 13 14 15 16

000
FTUS43 KICT 200500
TAFICT
TAF
KICT 200520Z 2006/2106 16009KT P6SM FEW050
     FM201000 17011KT 6SM BR FEW009 SCT015
     FM201500 17015G23KT P6SM SCT050
     FM210200 17011KT P6SM FEW250=

USA.gov is the U.S. government's official web portal to all federal, state and local government web resources and services.